Time;durP1;ratioP1;P1;durP2;ratioP2;P2;SDS_P1;SDS_P2;PMS_P1;PMS_P2;Temp;Humidity;BMP_temperature;BMP_pressure;BME280_temperature;BME280_humidity;BME280_pressure;Samples;Min_cycle;Max_cycle;Signal;HPM_P1;HPM_P2
2022/02/26 00:01:37;;;;;;;1999.90;999.90;;;7.90;62.10;;;;;;4995081;28;20414;-81
2022/02/26 00:04:03;;;;;;;20.80;19.60;;;7.80;62.10;;;;;;4977149;28;20041;-81
2022/02/26 00:06:29;;;;;;;515.22;264.55;;;7.80;62.20;;;;;;5000251;28;20195;-81
2022/02/26 00:08:55;;;;;;;20.50;19.50;;;7.80;62.30;;;;;;4993159;28;20042;-81
2022/02/26 00:11:21;;;;;;;20.45;19.45;;;7.70;62.30;;;;;;4993181;28;20033;-80
2022/02/26 00:13:47;;;;;;;21.00;19.80;;;7.70;62.40;;;;;;4978710;28;20037;-80
2022/02/26 00:16:13;;;;;;;20.77;19.63;;;7.70;62.50;;;;;;4991707;28;20050;-80
2022/02/26 00:18:41;;;;;;;20.35;19.35;;;7.70;62.50;;;;;;4996845;28;20038;-81
2022/02/26 00:21:07;;;;;;;20.42;19.42;;;7.70;62.50;;;;;;4977610;28;20027;-81
2022/02/26 00:23:33;;;;;;;19.50;18.60;;;7.70;62.50;;;;;;4976554;28;20467;-81
2022/02/26 00:25:59;;;;;;;20.58;19.58;;;7.70;62.50;;;;;;4997156;28;20030;-81
2022/02/26 00:28:26;;;;;;;20.50;19.45;;;7.60;62.50;;;;;;4993444;28;20040;-81
2022/02/26 00:30:52;;;;;;;21.85;20.67;;;7.60;62.60;;;;;;4995127;28;20399;-81
2022/02/26 00:33:19;;;;;;;19.15;18.25;;;7.50;62.60;;;;;;4996367;28;20026;-81
2022/02/26 00:35:45;;;;;;;22.02;20.63;;;7.50;62.70;;;;;;4992906;28;20387;-81
2022/02/26 00:38:11;;;;;;;20.88;19.77;;;7.50;62.70;;;;;;4996416;28;20057;-81
2022/02/26 00:40:37;;;;;;;20.15;19.13;;;7.40;62.70;;;;;;4994949;28;20366;-81
2022/02/26 00:43:03;;;;;;;20.30;19.25;;;7.40;62.80;;;;;;4993556;28;20045;-81
2022/02/26 00:45:30;;;;;;;19.87;18.87;;;7.40;62.80;;;;;;4979772;28;20046;-80
2022/02/26 00:47:56;;;;;;;20.10;19.10;;;7.30;62.80;;;;;;4992764;28;20052;-81
2022/02/26 00:50:23;;;;;;;20.02;18.92;;;7.30;63.00;;;;;;4992719;28;20034;-81
2022/02/26 00:52:49;;;;;;;19.90;18.80;;;7.30;63.00;;;;;;4975664;28;20038;-81
2022/02/26 00:55:15;;;;;;;19.97;18.97;;;7.30;63.00;;;;;;4991498;28;20030;-81
2022/02/26 00:57:41;;;;;;;20.43;19.33;;;7.20;63.00;;;;;;4996056;28;20038;-81
2022/02/26 01:00:09;;;;;;;19.92;19.02;;;7.20;63.10;;;;;;4992090;28;20089;-80
2022/02/26 01:02:35;;;;;;;19.73;18.80;;;7.20;63.20;;;;;;4976616;28;20027;-81
2022/02/26 01:05:01;;;;;;;21.17;20.08;;;7.20;63.20;;;;;;4969480;28;20042;-80
2022/02/26 01:07:27;;;;;;;21.00;19.80;;;7.10;63.20;;;;;;4990932;28;20494;-81
2022/02/26 01:09:53;;;;;;;19.75;18.75;;;7.10;63.20;;;;;;4977604;28;20050;-81
2022/02/26 01:12:19;;;;;;;21.13;20.02;;;7.10;63.20;;;;;;4995103;28;20407;-81
2022/02/26 01:14:45;;;;;;;21.33;20.15;;;7.10;63.30;;;;;;4995309;28;20049;-80
2022/02/26 01:17:12;;;;;;;22.65;21.15;;;7.10;63.30;;;;;;4991799;28;20502;-81
2022/02/26 01:19:39;;;;;;;20.60;19.55;;;7.10;63.30;;;;;;4994238;28;20050;-81
2022/02/26 01:22:05;;;;;;;20.75;19.75;;;7.00;63.30;;;;;;4992033;28;20026;-80
2022/02/26 01:24:31;;;;;;;20.58;19.48;;;7.00;63.30;;;;;;4977348;28;20050;-81
2022/02/26 01:26:57;;;;;;;20.55;19.55;;;7.00;63.30;;;;;;4975984;28;20041;-81
2022/02/26 01:29:23;;;;;;;20.27;19.23;;;7.00;63.30;;;;;;4991909;28;20030;-81
2022/02/26 01:31:49;;;;;;;21.92;20.83;;;7.00;63.40;;;;;;4993649;28;20033;-81
2022/02/26 01:34:15;;;;;;;20.27;19.17;;;6.90;63.50;;;;;;4990774;28;20027;-81
2022/02/26 01:36:41;;;;;;;20.83;19.65;;;6.90;63.60;;;;;;4978921;28;20030;-81
2022/02/26 01:39:08;;;;;;;19.02;18.13;;;6.90;63.60;;;;;;4977961;28;20046;-81
2022/02/26 01:41:35;;;;;;;20.00;19.00;;;6.90;63.60;;;;;;4992009;28;20022;-81
2022/02/26 01:44:01;;;;;;;20.45;19.45;;;6.90;63.60;;;;;;4991862;28;20048;-81
2022/02/26 01:46:27;;;;;;;20.53;19.40;;;6.90;63.60;;;;;;4991924;28;20041;-81
2022/02/26 01:48:54;;;;;;;21.05;19.95;;;6.80;63.60;;;;;;4993747;28;20041;-81
2022/02/26 01:51:20;;;;;;;21.15;19.85;;;6.70;63.70;;;;;;4992483;28;20030;-80
2022/02/26 01:53:46;;;;;;;19.27;18.30;;;6.70;63.70;;;;;;4991531;28;20027;-81
2022/02/26 01:56:12;;;;;;;22.63;21.10;;;6.70;63.80;;;;;;4991457;28;20042;-81
2022/02/26 01:58:38;;;;;;;21.02;19.50;;;6.70;63.90;;;;;;4975709;28;20534;-81
2022/02/26 02:01:05;;;;;;;19.97;18.97;;;6.60;63.80;;;;;;4991521;28;20042;-81
2022/02/26 02:03:32;;;;;;;20.43;19.33;;;6.60;63.90;;;;;;4994248;28;20027;-81
2022/02/26 02:05:58;;;;;;;19.73;18.70;;;6.60;64.00;;;;;;4994994;28;20401;-81
2022/02/26 02:08:24;;;;;;;21.70;20.47;;;6.60;64.00;;;;;;4991302;28;20483;-80
2022/02/26 02:10:51;;;;;;;20.13;19.13;;;6.50;63.90;;;;;;4974898;28;20106;-80
2022/02/26 02:13:18;;;;;;;21.07;19.57;;;6.50;64.00;;;;;;4991167;28;20038;-80
2022/02/26 02:15:44;;;;;;;20.15;19.20;;;6.50;64.00;;;;;;4978190;28;20380;-81
2022/02/26 02:18:12;;;;;;;20.35;19.40;;;6.50;64.00;;;;;;4991217;28;20049;-81
2022/02/26 02:20:39;;;;;;;19.47;18.57;;;6.50;64.80;;;;;;4990973;28;20030;-80
2022/02/26 02:23:05;;;;;;;20.80;19.80;;;6.50;64.10;;;;;;4991037;28;20046;-81
2022/02/26 02:25:32;;;;;;;20.40;19.30;;;6.50;64.10;;;;;;4972593;28;20039;-81
2022/02/26 02:27:58;;;;;;;20.57;19.57;;;6.40;64.10;;;;;;4992346;28;20399;-81
2022/02/26 02:30:25;;;;;;;20.47;19.17;;;6.40;64.00;;;;;;4977360;28;20030;-80
2022/02/26 02:32:52;;;;;;;20.13;19.13;;;6.40;64.20;;;;;;4974979;28;20380;-81
2022/02/26 02:35:28;;;;;;;20.40;19.40;;;6.40;64.10;;;;;;4974824;28;20037;-80
2022/02/26 02:37:55;;;;;;;20.93;19.73;;;6.40;64.20;;;;;;4974623;28;20038;-80
2022/02/26 02:40:22;;;;;;;19.47;18.57;;;6.40;64.20;;;;;;4988750;28;20034;-81
2022/02/26 02:42:48;;;;;;;20.33;19.23;;;6.40;64.20;;;;;;5001788;28;20030;-81
2022/02/26 02:45:14;;;;;;;19.80;18.90;;;6.40;64.30;;;;;;4992883;28;20487;-81
2022/02/26 02:47:40;;;;;;;19.77;18.77;;;6.40;64.30;;;;;;4994901;28;20034;-80
2022/02/26 02:50:07;;;;;;;19.73;18.73;;;6.40;64.30;;;;;;4990616;28;20387;-81
2022/02/26 02:52:33;;;;;;;20.50;19.38;;;6.40;64.30;;;;;;4955733;28;20369;-81
2022/02/26 02:54:59;;;;;;;20.13;19.03;;;6.40;65.10;;;;;;4992003;28;20034;-80
2022/02/26 02:57:25;;;;;;;19.53;18.57;;;6.30;64.20;;;;;;4994297;28;20034;-81
2022/02/26 02:59:51;;;;;;;19.83;18.83;;;6.30;64.30;;;;;;4994734;28;20049;-80
2022/02/26 03:02:18;;;;;;;19.77;18.80;;;6.30;64.40;;;;;;4989929;28;20042;-80
2022/02/26 03:04:44;;;;;;;19.30;18.40;;;6.30;64.40;;;;;;4968686;28;20068;-80
2022/02/26 03:07:10;;;;;;;19.03;18.13;;;6.30;64.40;;;;;;4991656;28;20030;-80
2022/02/26 03:09:36;;;;;;;19.17;17.93;;;6.20;64.40;;;;;;4958818;28;20038;-80
2022/02/26 03:12:02;;;;;;;19.50;18.57;;;6.20;64.60;;;;;;4976759;28;20042;-80
2022/02/26 03:14:28;;;;;;;19.33;18.13;;;6.10;64.60;;;;;;4990579;28;20031;-80
2022/02/26 03:16:54;;;;;;;19.77;18.60;;;6.10;64.70;;;;;;4989900;28;20045;-80
2022/02/26 03:19:21;;;;;;;19.75;18.80;;;6.00;64.70;;;;;;4990299;28;20027;-81
2022/02/26 03:21:47;;;;;;;19.67;18.47;;;6.00;64.70;;;;;;5005502;28;20018;-80
2022/02/26 03:24:14;;;;;;;19.73;18.83;;;6.00;64.70;;;;;;4993254;28;20126;-80
2022/02/26 03:26:40;;;;;;;19.23;18.33;;;6.00;64.80;;;;;;4973358;28;20030;-80
2022/02/26 03:29:07;;;;;;;20.40;19.33;;;6.00;64.80;;;;;;4983764;28;20045;-80
2022/02/26 03:31:34;;;;;;;19.20;18.30;;;6.00;64.80;;;;;;4971093;28;20034;-80
2022/02/26 03:34:00;;;;;;;19.13;18.23;;;6.00;64.90;;;;;;4991796;28;20487;-81
2022/02/26 03:36:27;;;;;;;19.70;18.80;;;6.00;64.80;;;;;;4993794;28;20042;-80
2022/02/26 03:38:53;;;;;;;20.50;19.50;;;6.00;64.90;;;;;;4975995;28;20447;-80
2022/02/26 03:41:19;;;;;;;18.63;17.73;;;5.90;64.80;;;;;;4994013;28;20057;-80
2022/02/26 03:43:46;;;;;;;19.43;18.43;;;5.90;64.80;;;;;;4994571;28;20125;-80
2022/02/26 03:46:12;;;;;;;19.57;18.67;;;5.90;65.00;;;;;;4992451;28;20042;-80
2022/02/26 03:48:39;;;;;;;19.87;18.83;;;5.90;65.00;;;;;;4997452;28;20030;-80
2022/02/26 03:51:06;;;;;;;19.10;18.20;;;5.80;65.00;;;;;;4997769;28;20030;-80
2022/02/26 03:53:32;;;;;;;19.40;18.50;;;5.90;65.10;;;;;;4997767;28;20068;-80
2022/02/26 03:55:59;;;;;;;19.43;18.53;;;5.80;65.10;;;;;;4977649;28;20386;-80
2022/02/26 03:58:25;;;;;;;18.50;17.63;;;5.80;65.10;;;;;;4991580;28;20053;-80
2022/02/26 04:00:51;;;;;;;18.80;17.90;;;5.80;65.10;;;;;;4975723;28;20046;-80
2022/02/26 04:03:17;;;;;;;19.87;18.90;;;5.70;65.20;;;;;;4997922;28;20037;-80
2022/02/26 04:05:43;;;;;;;19.90;18.70;;;5.70;65.20;;;;;;4996218;28;20057;-80
2022/02/26 04:08:09;;;;;;;19.17;18.27;;;5.70;65.10;;;;;;4993678;28;20030;-80
2022/02/26 04:10:35;;;;;;;19.03;18.13;;;5.70;65.10;;;;;;4991188;28;20030;-80
2022/02/26 04:13:03;;;;;;;19.07;18.17;;;5.70;65.20;;;;;;4994191;28;20034;-80
2022/02/26 04:15:29;;;;;;;19.23;18.33;;;5.70;65.20;;;;;;4996054;28;20030;-80
2022/02/26 04:17:55;;;;;;;18.70;17.80;;;5.70;65.20;;;;;;4963280;28;20038;-80
2022/02/26 04:20:21;;;;;;;20.03;19.13;;;5.70;65.20;;;;;;4979328;28;20054;-80
2022/02/26 04:22:47;;;;;;;19.77;18.77;;;5.70;65.20;;;;;;4993766;28;20038;-80
2022/02/26 04:25:14;;;;;;;19.67;18.50;;;5.70;65.30;;;;;;4992449;28;20387;-80
2022/02/26 04:27:40;;;;;;;19.43;18.37;;;5.60;65.30;;;;;;4996589;28;20034;-80
2022/02/26 04:30:08;;;;;;;18.10;17.30;;;5.60;65.30;;;;;;4975704;28;20498;-80
2022/02/26 04:32:35;;;;;;;19.50;18.60;;;5.60;65.30;;;;;;4997092;28;20407;-81
2022/02/26 04:35:03;;;;;;;19.13;18.10;;;5.60;65.30;;;;;;4993048;28;20034;-80
2022/02/26 04:37:29;;;;;;;19.23;18.23;;;5.60;65.30;;;;;;4992209;28;20387;-80
2022/02/26 04:39:55;;;;;;;19.67;18.73;;;5.60;65.30;;;;;;4994910;28;20039;-80
2022/02/26 04:42:22;;;;;;;19.00;18.00;;;5.60;65.40;;;;;;4993934;28;20030;-80
2022/02/26 04:44:48;;;;;;;18.80;17.90;;;5.50;65.30;;;;;;4959279;28;20043;-80
2022/02/26 04:47:14;;;;;;;19.70;18.60;;;5.50;65.40;;;;;;4995140;28;20119;-80
2022/02/26 04:49:40;;;;;;;19.27;18.27;;;5.50;65.50;;;;;;4974887;28;20392;-80
2022/02/26 04:52:07;;;;;;;19.10;18.20;;;5.40;65.50;;;;;;4994055;28;20033;-81
2022/02/26 04:54:33;;;;;;;19.50;18.60;;;5.40;65.50;;;;;;4996426;28;20041;-80
2022/02/26 04:56:59;;;;;;;18.60;17.70;;;5.30;65.60;;;;;;4992564;28;20487;-80
2022/02/26 04:59:25;;;;;;;18.73;17.83;;;5.40;65.70;;;;;;4995951;28;20046;-81
2022/02/26 05:01:51;;;;;;;18.50;17.63;;;5.30;65.60;;;;;;4977451;28;20048;-81
2022/02/26 05:04:17;;;;;;;18.80;17.90;;;5.30;65.60;;;;;;4991047;28;20426;-81
2022/02/26 05:06:44;;;;;;;19.83;18.73;;;5.30;65.70;;;;;;4976434;28;20046;-81
2022/02/26 05:09:10;;;;;;;18.90;18.00;;;5.30;65.80;;;;;;4995159;28;20030;-81
2022/02/26 05:11:36;;;;;;;18.20;17.40;;;5.30;65.70;;;;;;4992564;28;20022;-81
2022/02/26 05:14:02;;;;;;;18.73;17.83;;;5.30;65.80;;;;;;4977729;28;20050;-81
2022/02/26 05:16:28;;;;;;;18.73;17.83;;;5.30;65.80;;;;;;4990160;28;20027;-81
2022/02/26 05:18:54;;;;;;;19.83;18.63;;;5.30;65.80;;;;;;4994537;28;20042;-81
2022/02/26 05:21:20;;;;;;;19.10;18.20;;;5.30;65.80;;;;;;4975652;28;20030;-81
2022/02/26 05:23:48;;;;;;;18.27;17.47;;;5.30;65.80;;;;;;4974788;28;20069;-81
2022/02/26 05:26:14;;;;;;;18.20;17.40;;;5.20;65.80;;;;;;4969880;28;20387;-81
2022/02/26 05:28:40;;;;;;;18.50;17.60;;;5.20;65.90;;;;;;4973736;28;20042;-81
2022/02/26 05:31:06;;;;;;;19.03;17.83;;;5.20;65.90;;;;;;4993191;28;20046;-81
2022/02/26 05:33:33;;;;;;;18.60;17.70;;;5.20;65.90;;;;;;4993623;28;20027;-81
2022/02/26 05:35:59;;;;;;;19.10;18.00;;;5.20;65.90;;;;;;4975890;28;20037;-81
2022/02/26 05:38:25;;;;;;;18.73;17.83;;;5.20;65.90;;;;;;4995710;28;20030;-81
2022/02/26 05:40:52;;;;;;;18.70;17.80;;;5.20;65.90;;;;;;4960447;28;20399;-81
2022/02/26 05:43:18;;;;;;;18.27;17.47;;;5.20;65.90;;;;;;4990189;28;20037;-81
2022/02/26 05:45:44;;;;;;;19.17;18.27;;;5.20;66.00;;;;;;4994519;28;20034;-81
2022/02/26 05:48:10;;;;;;;18.30;17.40;;;5.20;66.00;;;;;;4991721;28;20023;-81
2022/02/26 05:50:36;;;;;;;17.70;16.90;;;5.20;66.00;;;;;;4978102;28;20506;-81
2022/02/26 05:53:02;;;;;;;18.10;17.20;;;5.20;66.00;;;;;;4977658;28;20045;-81
2022/02/26 05:55:28;;;;;;;19.40;18.13;;;5.20;66.00;;;;;;4958152;28;20045;-81
2022/02/26 05:57:55;;;;;;;18.17;17.30;;;5.20;66.10;;;;;;4993559;28;20452;-81
2022/02/26 06:00:21;;;;;;;18.30;17.50;;;5.10;66.00;;;;;;4977425;28;20113;-81
2022/02/26 06:02:47;;;;;;;18.60;17.70;;;5.10;66.10;;;;;;4974982;28;20026;-81
2022/02/26 06:05:13;;;;;;;18.47;17.53;;;5.10;66.10;;;;;;4995557;28;20045;-81
2022/02/26 06:07:39;;;;;;;19.67;18.27;;;5.10;66.20;;;;;;4993331;28;20026;-81
2022/02/26 06:10:05;;;;;;;18.07;17.27;;;5.10;66.30;;;;;;4991660;28;20042;-81
2022/02/26 06:12:31;;;;;;;17.63;16.83;;;5.10;66.30;;;;;;4994442;28;20035;-81
2022/02/26 06:14:58;;;;;;;19.17;18.10;;;5.10;66.20;;;;;;4993596;28;20394;-81
2022/02/26 06:17:24;;;;;;;19.60;18.40;;;5.10;66.30;;;;;;4974871;28;20026;-81
2022/02/26 06:19:50;;;;;;;19.40;18.50;;;5.00;66.30;;;;;;4990797;28;20049;-81
2022/02/26 06:22:16;;;;;;;18.37;17.43;;;5.00;66.40;;;;;;4989946;28;20026;-81
2022/02/26 06:24:42;;;;;;;19.10;18.10;;;5.00;66.40;;;;;;4994858;28;20030;-81
2022/02/26 06:27:08;;;;;;;18.47;17.57;;;5.00;66.50;;;;;;4975058;28;20480;-80
2022/02/26 06:29:34;;;;;;;18.67;17.67;;;5.00;66.40;;;;;;4976944;28;20043;-81
2022/02/26 06:32:00;;;;;;;18.73;17.77;;;5.00;66.40;;;;;;4990832;28;20038;-81
2022/02/26 06:34:28;;;;;;;18.20;17.40;;;4.90;66.40;;;;;;4989313;28;20427;-81
2022/02/26 06:36:54;;;;;;;17.47;16.67;;;4.90;66.40;;;;;;4993361;28;20361;-81
2022/02/26 06:39:20;;;;;;;17.67;16.87;;;4.90;66.50;;;;;;4977682;28;20046;-81
2022/02/26 06:41:46;;;;;;;18.43;17.53;;;4.90;66.60;;;;;;4994741;28;20037;-81
2022/02/26 06:44:12;;;;;;;18.17;17.37;;;4.80;66.60;;;;;;4991004;28;20411;-81
2022/02/26 06:46:39;;;;;;;18.93;18.03;;;4.80;66.70;;;;;;4973536;28;20045;-81
2022/02/26 06:49:05;;;;;;;18.40;17.50;;;4.80;66.80;;;;;;4992568;28;20026;-81
2022/02/26 06:51:32;;;;;;;18.60;17.70;;;4.70;66.90;;;;;;4994559;28;20061;-81
2022/02/26 06:54:01;;;;;;;18.00;17.20;;;4.70;67.00;;;;;;4990983;28;20031;-81
2022/02/26 06:56:31;;;;;;;17.83;17.03;;;4.60;67.00;;;;;;4990598;28;20038;-81
2022/02/26 06:58:57;;;;;;;17.80;17.00;;;4.50;67.30;;;;;;4993371;28;20057;-81
2022/02/26 07:01:23;;;;;;;17.83;16.77;;;4.50;67.50;;;;;;4972079;28;20034;-81
2022/02/26 07:03:49;;;;;;;18.60;17.23;;;4.40;67.40;;;;;;4994402;28;20026;-81
2022/02/26 07:06:15;;;;;;;17.63;16.83;;;4.40;67.60;;;;;;4993397;28;20427;-81
2022/02/26 07:08:41;;;;;;;17.40;16.53;;;4.40;67.60;;;;;;4990861;28;20035;-81
2022/02/26 07:11:07;;;;;;;17.70;16.90;;;4.40;67.70;;;;;;4994464;28;20422;-80
2022/02/26 07:13:34;;;;;;;18.60;17.67;;;4.40;67.80;;;;;;4989017;28;20042;-80
2022/02/26 07:16:00;;;;;;;17.87;16.97;;;4.40;67.80;;;;;;4995145;28;20522;-81
2022/02/26 07:18:26;;;;;;;16.73;15.93;;;4.40;67.70;;;;;;4997960;28;20035;-80
2022/02/26 07:20:52;;;;;;;19.30;18.17;;;4.40;67.70;;;;;;4994356;28;20038;-81
2022/02/26 07:23:18;;;;;;;19.00;17.77;;;4.40;67.70;;;;;;4996530;28;20050;-80
2022/02/26 07:25:45;;;;;;;17.40;16.60;;;4.40;67.80;;;;;;4993510;28;20029;-80
2022/02/26 07:28:15;;;;;;;17.67;16.87;;;4.40;67.90;;;;;;4993927;28;20459;-80
2022/02/26 07:30:41;;;;;;;17.90;17.10;;;4.40;67.90;;;;;;4980972;28;20031;-80
2022/02/26 07:33:07;;;;;;;16.97;16.17;;;4.40;68.20;;;;;;4978138;28;20034;-81
2022/02/26 07:35:34;;;;;;;18.30;17.43;;;4.40;68.30;;;;;;4960935;28;20680;-81
2022/02/26 07:38:00;;;;;;;18.53;17.53;;;4.40;68.30;;;;;;4996619;28;20034;-80
2022/02/26 07:40:26;;;;;;;18.33;17.53;;;4.40;68.30;;;;;;4994188;28;20038;-81
2022/02/26 07:42:52;;;;;;;18.30;17.40;;;4.50;68.30;;;;;;4996885;28;20038;-80
2022/02/26 07:45:19;;;;;;;19.97;18.50;;;4.50;68.30;;;;;;4997695;28;20037;-81
2022/02/26 07:47:45;;;;;;;18.23;17.43;;;4.60;68.30;;;;;;4993875;28;20387;-81
2022/02/26 07:50:11;;;;;;;1999.90;999.90;;;4.60;68.10;;;;;;4963873;28;20036;-81
2022/02/26 07:52:37;;;;;;;1999.90;999.90;;;4.70;68.10;;;;;;4991024;28;20040;-81
2022/02/26 07:55:04;;;;;;;1999.90;999.90;;;5.10;67.60;;;;;;4994622;28;20037;-81
2022/02/26 07:57:30;;;;;;;1999.90;999.90;;;5.70;66.40;;;;;;4997243;28;20037;-81
2022/02/26 07:59:57;;;;;;;1999.90;999.90;;;6.10;65.20;;;;;;4960955;28;20042;-81
2022/02/26 08:02:23;;;;;;;1999.90;999.90;;;6.50;64.40;;;;;;4979226;28;20034;-81
2022/02/26 08:04:49;;;;;;;1999.90;999.90;;;6.70;63.80;;;;;;4972393;28;20034;-81
2022/02/26 08:07:16;;;;;;;1999.90;999.90;;;6.90;63.70;;;;;;4992559;28;20034;-81
2022/02/26 08:09:45;;;;;;;1999.90;999.90;;;6.90;63.80;;;;;;4992062;28;20031;-81
2022/02/26 08:12:12;;;;;;;1999.90;999.90;;;6.90;64.00;;;;;;4996243;28;20043;-81
2022/02/26 08:14:38;;;;;;;1999.90;999.90;;;7.00;64.20;;;;;;4996083;28;20026;-81
2022/02/26 08:17:04;;;;;;;1999.90;999.90;;;7.20;64.20;;;;;;4992952;28;20383;-81
2022/02/26 08:19:31;;;;;;;1999.90;999.90;;;7.30;64.10;;;;;;4976416;28;20042;-81
2022/02/26 08:21:57;;;;;;;1999.90;999.90;;;7.40;64.00;;;;;;4994910;28;20030;-81
2022/02/26 08:24:23;;;;;;;1999.90;999.90;;;7.60;63.80;;;;;;4977703;28;20054;-81
2022/02/26 08:26:50;;;;;;;1999.90;999.90;;;7.70;63.60;;;;;;4994701;28;20027;-81
2022/02/26 08:29:16;;;;;;;1999.90;999.90;;;7.80;63.60;;;;;;4977185;28;20026;-81
2022/02/26 08:31:42;;;;;;;1999.90;999.90;;;7.90;63.50;;;;;;4995142;28;20065;-82
2022/02/26 08:34:09;;;;;;;1999.90;999.90;;;8.10;63.30;;;;;;4994178;28;20359;-82
2022/02/26 08:36:35;;;;;;;1999.90;999.90;;;8.30;63.00;;;;;;4996592;28;20031;-81
2022/02/26 08:39:02;;;;;;;1999.90;999.90;;;8.50;62.50;;;;;;4976466;28;20026;-82
2022/02/26 08:41:28;;;;;;;1999.90;999.90;;;8.50;62.50;;;;;;4959890;28;20046;-82
2022/02/26 08:43:54;;;;;;;1999.90;999.90;;;8.60;62.50;;;;;;4995695;28;20026;-82
2022/02/26 08:46:20;;;;;;;1999.90;999.90;;;8.50;62.70;;;;;;4975402;28;20034;-82
2022/02/26 08:48:47;;;;;;;1999.90;999.90;;;8.60;63.00;;;;;;4996201;28;20372;-82
2022/02/26 08:51:13;;;;;;;1999.90;999.90;;;8.70;62.80;;;;;;4996455;28;20026;-82
2022/02/26 08:53:39;;;;;;;1999.90;999.90;;;8.70;62.60;;;;;;4996648;28;20031;-82
2022/02/26 08:56:05;;;;;;;1999.90;999.90;;;8.80;62.60;;;;;;4992680;28;20022;-82
2022/02/26 08:58:31;;;;;;;1999.90;999.90;;;8.90;62.70;;;;;;4989586;28;20050;-82
2022/02/26 09:00:57;;;;;;;1999.90;999.90;;;9.10;62.50;;;;;;4993763;28;20459;-82
2022/02/26 09:03:23;;;;;;;1999.90;999.90;;;9.20;62.30;;;;;;4993547;28;20037;-82
2022/02/26 09:05:51;;;;;;;1999.90;999.90;;;9.40;62.10;;;;;;4978116;28;20049;-82
2022/02/26 09:08:17;;;;;;;1999.90;999.90;;;9.40;62.10;;;;;;4996445;28;20037;-82
2022/02/26 09:10:43;;;;;;;1999.90;999.90;;;9.40;62.00;;;;;;4975129;28;20441;-82
2022/02/26 09:13:09;;;;;;;1999.90;999.90;;;9.50;62.20;;;;;;4992465;28;20041;-82
2022/02/26 09:15:35;;;;;;;1999.90;999.90;;;9.60;62.20;;;;;;4995069;28;20037;-82
2022/02/26 09:18:02;;;;;;;1999.90;999.90;;;9.80;62.00;;;;;;4978351;28;20037;-82
2022/02/26 09:20:28;;;;;;;1999.90;999.90;;;9.90;61.60;;;;;;4959018;28;20046;-82
2022/02/26 09:22:54;;;;;;;1999.90;999.90;;;10.10;61.50;;;;;;4991925;28;20061;-82
2022/02/26 09:25:20;;;;;;;1999.90;999.90;;;10.20;61.30;;;;;;4990482;28;20042;-82
2022/02/26 09:27:47;;;;;;;1999.90;999.90;;;10.30;61.30;;;;;;4995798;28;20026;-82
2022/02/26 09:30:14;;;;;;;1999.90;999.90;;;10.50;61.20;;;;;;4991666;28;20395;-82
2022/02/26 09:32:41;;;;;;;1999.90;999.90;;;10.60;60.90;;;;;;4978649;28;20050;-82
2022/02/26 09:35:09;;;;;;;1999.90;999.90;;;10.60;60.70;;;;;;4975293;28;20034;-82
2022/02/26 09:37:35;;;;;;;1999.90;999.90;;;10.60;60.70;;;;;;4972753;28;20038;-82
2022/02/26 09:40:02;;;;;;;1999.90;999.90;;;10.50;60.70;;;;;;4974161;28;20054;-82
2022/02/26 09:42:29;;;;;;;1999.90;999.90;;;10.60;60.90;;;;;;4996597;28;20022;-82
2022/02/26 09:44:55;;;;;;;1999.90;999.90;;;10.70;60.60;;;;;;4975616;28;20039;-82
2022/02/26 09:47:22;;;;;;;1999.90;999.90;;;10.80;60.30;;;;;;4975283;28;20049;-82
2022/02/26 09:49:48;;;;;;;1999.90;999.90;;;10.90;60.20;;;;;;4960590;28;20038;-82
2022/02/26 09:52:16;;;;;;;1999.90;999.90;;;11.10;60.10;;;;;;4991001;28;20030;-82
2022/02/26 09:54:48;;;;;;;1999.90;999.90;;;11.20;59.80;;;;;;4979422;28;20042;-82
2022/02/26 09:57:15;;;;;;;1999.90;999.90;;;11.20;59.70;;;;;;4975897;28;20038;-82
2022/02/26 09:59:45;;;;;;;1999.90;999.90;;;11.20;59.70;;;;;;4995392;28;20053;-82
2022/02/26 10:02:11;;;;;;;1999.90;999.90;;;11.20;59.70;;;;;;4975128;28;20414;-82
2022/02/26 10:04:38;;;;;;;1999.90;999.90;;;11.20;59.70;;;;;;4950909;28;20050;-82
2022/02/26 10:07:17;;;;;;;1999.90;999.90;;;11.20;59.90;;;;;;4993572;28;20037;-82
2022/02/26 10:09:47;;;;;;;1999.90;999.90;;;11.20;59.90;;;;;;4994425;28;20045;-83
2022/02/26 10:12:27;;;;;;;1999.90;999.90;;;11.30;59.70;;;;;;4975704;28;20387;-82
2022/02/26 10:14:58;;;;;;;1999.90;999.90;;;11.30;59.50;;;;;;4959070;28;20043;-82
2022/02/26 10:17:34;;;;;;;1999.90;999.90;;;11.30;59.30;;;;;;4993102;28;20042;-82
2022/02/26 10:20:15;;;;;;;1999.90;999.90;;;11.40;59.10;;;;;;4977480;28;20050;-82
2022/02/26 10:22:43;;;;;;;1999.90;999.90;;;11.40;58.80;;;;;;4991701;28;20049;-82
2022/02/26 10:25:11;;;;;;;1999.90;999.90;;;11.50;58.70;;;;;;4991013;28;20038;-82
2022/02/26 10:27:39;;;;;;;1999.90;999.90;;;11.50;58.50;;;;;;4978761;28;20030;-82
2022/02/26 10:30:05;;;;;;;1999.90;999.90;;;11.50;58.30;;;;;;4974895;28;20042;-82
2022/02/26 10:32:31;;;;;;;1999.90;999.90;;;11.50;57.90;;;;;;4974920;28;20026;-82
2022/02/26 10:34:57;;;;;;;1999.90;999.90;;;11.40;57.60;;;;;;4990860;28;20034;-82
2022/02/26 10:37:24;;;;;;;1999.90;999.90;;;11.50;57.50;;;;;;4989165;28;20030;-82
2022/02/26 10:39:54;;;;;;;1999.90;999.90;;;11.50;57.40;;;;;;4994489;28;20487;-82
2022/02/26 10:42:21;;;;;;;1999.90;999.90;;;11.60;57.00;;;;;;4977090;28;20042;-82
2022/02/26 10:45:00;;;;;;;1999.90;999.90;;;11.60;56.50;;;;;;4992513;28;20030;-82
2022/02/26 10:47:28;;;;;;;1999.90;999.90;;;11.70;56.30;;;;;;4977369;28;20050;-82
2022/02/26 10:49:55;;;;;;;1999.90;999.90;;;11.80;55.60;;;;;;4978785;28;20048;-81
2022/02/26 10:52:21;;;;;;;1999.90;999.90;;;11.80;55.30;;;;;;4994520;28;20038;-82
2022/02/26 10:54:51;;;;;;;1999.90;999.90;;;11.90;55.30;;;;;;4982342;28;20041;-82
2022/02/26 10:57:17;;;;;;;1999.90;999.90;;;12.00;55.10;;;;;;4978946;28;20467;-82
2022/02/26 10:59:45;;;;;;;1999.90;999.90;;;12.10;55.00;;;;;;4994943;28;20049;-82
2022/02/26 11:02:16;;;;;;;1999.90;999.90;;;12.10;54.50;;;;;;4964054;28;20048;-82
2022/02/26 11:04:42;;;;;;;1999.90;999.90;;;12.10;54.00;;;;;;4956263;28;20097;-82
2022/02/26 11:07:10;;;;;;;1999.90;999.90;;;12.10;53.80;;;;;;4996006;28;20038;-82
2022/02/26 11:09:39;;;;;;;1999.90;999.90;;;12.20;53.60;;;;;;4997782;28;20043;-82
2022/02/26 11:12:06;;;;;;;1999.90;999.90;;;12.20;53.40;;;;;;4978695;28;20490;-82
2022/02/26 11:14:33;;;;;;;1999.90;999.90;;;12.20;53.00;;;;;;4978525;28;20037;-82
2022/02/26 11:17:01;;;;;;;1999.90;999.90;;;12.30;52.70;;;;;;4979692;28;20034;-82
2022/02/26 11:19:29;;;;;;;1999.90;999.90;;;12.40;52.70;;;;;;4977381;28;20687;-82
2022/02/26 11:21:56;;;;;;;1999.90;999.90;;;12.50;52.90;;;;;;4996879;28;20057;-82
2022/02/26 11:24:23;;;;;;;1999.90;999.90;;;12.50;51.60;;;;;;4978059;28;20050;-82
2022/02/26 11:26:49;;;;;;;1999.90;999.90;;;12.50;51.40;;;;;;4991804;28;20033;-82
2022/02/26 11:29:17;;;;;;;1999.90;999.90;;;12.50;50.90;;;;;;4989458;28;20030;-82
2022/02/26 11:31:58;;;;;;;1999.90;999.90;;;12.50;51.00;;;;;;4991915;28;20030;-82
2022/02/26 11:34:25;;;;;;;1999.90;999.90;;;12.60;50.80;;;;;;4977617;28;20038;-82
2022/02/26 11:36:54;;;;;;;1999.90;999.90;;;12.70;50.70;;;;;;4998456;28;20033;-82
2022/02/26 11:39:26;;;;;;;1999.90;999.90;;;12.80;50.50;;;;;;4998363;28;20030;-82
2022/02/26 11:42:10;;;;;;;;;;;12.80;49.90;;;;;;4994724;28;20036;-82
2022/02/26 11:44:37;;;;;;;1999.90;999.90;;;12.70;49.70;;;;;;4997920;28;20220;-82
2022/02/26 11:47:17;;;;;;;1999.90;999.90;;;12.80;49.50;;;;;;4993109;28;20026;-82
2022/02/26 11:50:04;;;;;;;1999.90;999.90;;;12.80;49.30;;;;;;4992578;28;20054;-82
2022/02/26 11:52:36;;;;;;;1999.90;999.90;;;12.80;49.20;;;;;;4978677;28;20026;-82
2022/02/26 11:55:18;;;;;;;1999.90;999.90;;;12.80;49.50;;;;;;4994527;28;20034;-82
2022/02/26 11:57:45;;;;;;;1999.90;999.90;;;12.90;48.80;;;;;;4997010;28;20471;-82
2022/02/26 12:00:12;;;;;;;1999.90;999.90;;;13.00;48.60;;;;;;4991853;28;20042;-82
2022/02/26 12:02:38;;;;;;;1999.90;999.90;;;13.00;47.90;;;;;;4995213;28;20038;-82
2022/02/26 12:05:04;;;;;;;1999.90;999.90;;;13.00;47.50;;;;;;4956719;28;20053;-82
2022/02/26 12:07:40;;;;;;;1999.90;999.90;;;13.00;47.40;;;;;;4994212;28;20034;-82
2022/02/26 12:10:11;;;;;;;1999.90;999.90;;;13.10;47.10;;;;;;4994167;28;20026;-82
2022/02/26 12:12:48;;;;;;;1999.90;999.90;;;13.20;47.10;;;;;;4996965;28;20464;-82
2022/02/26 12:15:15;;;;;;;1999.90;999.90;;;13.20;46.70;;;;;;4992764;28;20042;-82
2022/02/26 12:17:53;;;;;;;1999.90;999.90;;;13.30;46.60;;;;;;4995612;28;20460;-82
2022/02/26 12:20:21;;;;;;;1999.90;999.90;;;13.30;46.80;;;;;;4993475;28;20415;-82
2022/02/26 12:22:48;;;;;;;1999.90;999.90;;;13.40;46.60;;;;;;4962315;28;20041;-82